This is the latest recevied weather packets stored in our database for station/object VANOK. If no packets are shown the sender has not sent any weather packets the latest 1 day(s).
| Time | Temp. | Humidity | Pressure | Rain* | Wind** | Luminosity | Snow |
|---|---|---|---|---|---|---|---|
| 1778018844 | 4.44° C | 89% | 1009.7 hPa | - | 3.13 m/s, 255° | - | - |
| 1778017644 | 3.89° C | 90% | 1009.7 hPa | - | 3.13 m/s, 265° | - | - |
| 1778016444 | 4.44° C | 88% | 1009.6 hPa | - | 4.02 m/s, 258° | - | - |
| 1778015243 | 4.44° C | 88% | 1009.5 hPa | - | 4.02 m/s, 254° | - | - |
| 1778014044 | 4.44° C | 89% | 1009.5 hPa | - | 4.02 m/s, 254° | - | - |
| 1778012844 | 4.44° C | 89% | 1009.4 hPa | - | 4.02 m/s, 256° | - | - |
| 1778011643 | 4.44° C | 90% | 1009.2 hPa | - | 4.02 m/s, 258° | - | - |
| 1778010442 | 4.44° C | 88% | 1009.1 hPa | - | 4.92 m/s, 258° | - | - |
| 1778009243 | 5° C | 86% | 1009.1 hPa | - | 4.47 m/s, 262° | - | - |
| 1778008043 | 4.44° C | 85% | 1009.1 hPa | - | 3.58 m/s, 263° | - | - |
| 1778006843 | 5° C | 76% | 1008.9 hPa | - | 3.58 m/s, 270° | - | - |
| 1778005642 | 5° C | 74% | 1008.8 hPa | - | 3.58 m/s, 281° | - | - |
| 1778004443 | 5.56° C | 71% | 1008.6 hPa | - | 4.02 m/s, 279° | - | - |
| 1778003243 | 5.56° C | 68% | 1008.4 hPa | - | 4.47 m/s, 274° | - | - |
| 1778002042 | 6.11° C | 64% | 1008.4 hPa | - | 4.02 m/s, 268° | - | - |
| 1778000842 | 6.11° C | 65% | 1008.3 hPa | - | 5.81 m/s, 266° | - | - |
| 1777999642 | 6.67° C | 61% | 1008.2 hPa | - | 5.36 m/s, 260° | - | - |
| 1777998442 | 6.67° C | 56% | 1008.1 hPa | - | 6.26 m/s, 258° | - | - |
| 1777997242 | 6.67° C | 57% | 1008.1 hPa | - | 5.81 m/s, 259° | - | - |
| 1777996042 | 7.22° C | 54% | 1008.1 hPa | - | 6.71 m/s, 271° | - | - |
| 1777994842 | 7.22° C | 56% | 1008.1 hPa | - | 6.26 m/s, 269° | - | - |
| 1777993642 | 7.22° C | 59% | 1008 hPa | - | 4.02 m/s, 270° | - | - |
| 1777992442 | 7.22° C | 65% | 1008 hPa | - | 5.36 m/s, 269° | - | - |
| 1777991242 | 7.78° C | 65% | 1007.9 hPa | - | 5.81 m/s, 262° | - | - |
| 1777990041 | 7.22° C | 67% | 1007.8 hPa | - | 5.36 m/s, 241° | - | - |
* Rain since midnight (hover to see other rain measurements)
** Current wind speed in m/s (hover to see current wind gust speed)